Time;durP1;ratioP1;P1;durP2;ratioP2;P2;SDS_P1;SDS_P2;PMS_P1;PMS_P2;Temp;Humidity;BMP_temperature;BMP_pressure;BME280_temperature;BME280_humidity;BME280_pressure;Samples;Min_cycle;Max_cycle;Signal;HPM_P1;HPM_P2
2021/03/14 00:01:54;;;;;;;5.40;1.35;;;5.20;99.90;;;;;;5056699;28;20046;-69
2021/03/14 00:04:20;;;;;;;3.63;1.40;;;5.20;99.90;;;;;;5057569;28;20075;-69
2021/03/14 00:06:45;;;;;;;5.25;1.70;;;5.10;99.90;;;;;;5055349;28;20075;-69
2021/03/14 00:09:11;;;;;;;3.80;1.25;;;5.20;99.90;;;;;;5056383;28;20066;-69
2021/03/14 00:11:37;;;;;;;4.88;1.40;;;5.20;99.90;;;;;;5054653;28;20718;-69
2021/03/14 00:14:02;;;;;;;3.83;1.35;;;5.30;99.90;;;;;;5056451;28;20113;-70
2021/03/14 00:16:28;;;;;;;4.28;1.40;;;5.30;99.90;;;;;;5055865;28;20044;-69
2021/03/14 00:18:54;;;;;;;4.30;1.30;;;5.30;99.90;;;;;;5056924;28;20489;-69
2021/03/14 00:21:19;;;;;;;3.60;1.02;;;5.30;99.90;;;;;;5055356;28;20938;-69
2021/03/14 00:23:45;;;;;;;4.70;1.27;;;5.30;99.90;;;;;;5058415;28;20025;-69
2021/03/14 00:26:11;;;;;;;3.85;1.27;;;5.30;99.90;;;;;;5056137;28;20144;-69
2021/03/14 00:28:37;;;;;;;3.15;1.30;;;5.30;99.90;;;;;;5057049;28;20025;-69
2021/03/14 00:31:03;;;;;;;3.03;1.20;;;5.30;99.90;;;;;;5056007;28;20024;-69
2021/03/14 00:33:29;;;;;;;3.35;1.52;;;5.40;99.90;;;;;;5057093;28;20463;-69
2021/03/14 00:35:54;;;;;;;4.40;1.27;;;5.40;99.90;;;;;;5055821;28;20727;-70
2021/03/14 00:38:20;;;;;;;4.00;1.50;;;5.40;99.90;;;;;;5056582;28;20786;-70
2021/03/14 00:40:46;;;;;;;4.63;1.30;;;5.40;99.90;;;;;;5055016;28;20154;-70
2021/03/14 00:43:12;;;;;;;5.43;1.70;;;5.50;99.90;;;;;;5056424;28;20032;-64
2021/03/14 00:45:39;;;;;;;4.60;1.50;;;5.50;99.90;;;;;;5054975;28;20622;-64
2021/03/14 00:48:07;;;;;;;3.53;1.48;;;5.50;99.90;;;;;;5056702;28;20075;-64
2021/03/14 00:50:39;;;;;;;4.55;1.67;;;5.50;99.90;;;;;;5038729;28;20108;-64
2021/03/14 00:53:07;;;;;;;4.85;1.88;;;5.60;99.90;;;;;;5055185;28;20024;-64
2021/03/14 00:55:37;;;;;;;5.60;1.70;;;5.60;99.90;;;;;;5038598;28;20153;-65
2021/03/14 00:58:05;;;;;;;4.03;1.50;;;5.60;99.90;;;;;;5038584;28;20029;-65
2021/03/14 01:00:31;;;;;;;6.03;1.63;;;5.70;99.90;;;;;;5038451;28;20043;-65
2021/03/14 01:02:58;;;;;;;3.60;1.40;;;5.60;99.90;;;;;;5054843;28;20043;-65
2021/03/14 01:05:27;;;;;;;5.85;1.58;;;5.70;99.90;;;;;;5038354;28;20059;-65
2021/03/14 01:07:53;;;;;;;4.30;1.60;;;5.70;99.90;;;;;;5056370;28;20104;-64
2021/03/14 01:10:19;;;;;;;3.85;1.70;;;5.70;99.90;;;;;;5054729;28;20131;-64
2021/03/14 01:12:46;;;;;;;4.50;1.45;;;5.70;99.90;;;;;;5055454;28;20036;-64
2021/03/14 01:15:19;;;;;;;4.43;1.63;;;5.80;99.90;;;;;;5055235;28;20024;-65
2021/03/14 01:17:50;;;;;;;3.45;1.50;;;5.80;99.90;;;;;;5038391;28;20036;-65
2021/03/14 01:20:18;;;;;;;3.25;1.50;;;5.80;99.90;;;;;;5055889;28;20047;-65
2021/03/14 01:22:45;;;;;;;5.75;2.05;;;5.80;99.90;;;;;;5056457;28;20036;-65
2021/03/14 01:25:11;;;;;;;3.75;1.65;;;5.80;99.90;;;;;;5054147;28;20052;-65
2021/03/14 01:27:37;;;;;;;5.05;1.80;;;5.80;99.90;;;;;;5056264;28;20063;-64
2021/03/14 01:30:05;;;;;;;4.05;1.50;;;5.80;99.90;;;;;;5055797;28;20135;-65
2021/03/14 01:32:30;;;;;;;6.03;1.90;;;5.70;99.90;;;;;;5056320;28;20051;-65
2021/03/14 01:34:56;;;;;;;5.03;1.60;;;5.80;99.90;;;;;;5054920;28;20036;-65
2021/03/14 01:37:24;;;;;;;6.45;1.90;;;5.80;99.90;;;;;;5055526;28;20153;-65
2021/03/14 01:39:50;;;;;;;4.32;1.85;;;5.80;99.90;;;;;;5055820;28;20047;-65
2021/03/14 01:42:26;;;;;;;5.00;1.95;;;5.80;99.90;;;;;;5038028;28;20335;-65
2021/03/14 01:44:52;;;;;;;4.60;1.73;;;5.70;99.90;;;;;;5054158;28;20047;-65
2021/03/14 01:47:20;;;;;;;8.40;2.72;;;5.70;99.90;;;;;;5037268;28;20051;-64
2021/03/14 01:49:46;;;;;;;7.07;1.75;;;5.70;99.90;;;;;;5055555;28;20045;-64
2021/03/14 01:52:11;;;;;;;4.95;2.03;;;5.80;99.90;;;;;;5053672;28;20052;-64
2021/03/14 01:54:37;;;;;;;4.50;1.70;;;5.70;99.90;;;;;;5033398;28;20029;-64
2021/03/14 01:57:03;;;;;;;6.38;1.98;;;5.70;99.90;;;;;;5058918;28;20032;-64
2021/03/14 01:59:30;;;;;;;5.78;2.22;;;5.80;99.90;;;;;;5059065;28;20133;-64
2021/03/14 02:01:56;;;;;;;6.47;2.20;;;5.80;99.90;;;;;;5059986;28;20040;-65
2021/03/14 02:04:22;;;;;;;4.75;2.15;;;5.90;99.90;;;;;;5058952;28;20512;-64
2021/03/14 02:06:47;;;;;;;4.25;2.10;;;5.90;99.90;;;;;;5059333;28;20041;-64
2021/03/14 02:09:13;;;;;;;8.90;2.20;;;6.00;99.90;;;;;;5059117;28;20028;-65
2021/03/14 02:11:43;;;;;;;13.63;2.67;;;6.00;99.90;;;;;;5059760;28;20393;-65
2021/03/14 02:14:09;;;;;;;6.72;2.92;;;6.00;99.90;;;;;;5059581;28;20550;-65
2021/03/14 02:16:41;;;;;;;9.23;2.17;;;6.00;99.90;;;;;;5039289;28;20510;-65
2021/03/14 02:19:15;;;;;;;8.93;2.30;;;6.00;99.90;;;;;;5057494;28;20048;-65
2021/03/14 02:21:41;;;;;;;8.02;2.65;;;6.10;99.90;;;;;;5058828;28;20052;-65
2021/03/14 02:24:15;;;;;;;3.22;2.05;;;6.10;99.90;;;;;;5059106;28;20040;-65
2021/03/14 02:26:44;;;;;;;8.57;2.55;;;6.10;99.90;;;;;;5058255;28;20114;-64
2021/03/14 02:29:19;;;;;;;9.82;2.88;;;6.00;99.90;;;;;;5055207;28;20036;-65
2021/03/14 02:31:46;;;;;;;8.05;2.60;;;5.90;99.90;;;;;;5057748;28;20024;-65
2021/03/14 02:34:30;;;;;;;8.48;3.30;;;5.90;99.90;;;;;;5059338;28;20037;-65
2021/03/14 02:36:57;;;;;;;5.57;2.60;;;5.80;99.90;;;;;;5058350;28;20796;-64
2021/03/14 02:39:25;;;;;;;8.65;2.63;;;5.70;99.90;;;;;;5058762;28;20032;-64
2021/03/14 02:41:53;;;;;;;16.30;3.10;;;5.70;99.90;;;;;;5059610;28;20552;-65
2021/03/14 02:44:23;;;;;;;9.88;2.67;;;5.60;99.90;;;;;;5057050;28;20198;-64
2021/03/14 02:46:51;;;;;;;8.02;3.17;;;5.60;99.90;;;;;;5057522;28;20047;-66
2021/03/14 02:49:19;;;;;;;6.75;2.92;;;5.50;99.90;;;;;;5057823;28;20633;-64
2021/03/14 02:51:46;;;;;;;5.50;2.70;;;5.50;99.90;;;;;;5040855;28;20123;-65
2021/03/14 02:54:13;;;;;;;8.48;2.97;;;5.40;99.90;;;;;;5040189;28;20456;-65
2021/03/14 02:56:38;;;;;;;6.68;3.20;;;5.30;99.90;;;;;;5057125;28;20862;-64
2021/03/14 02:59:06;;;;;;;10.40;3.25;;;5.30;99.90;;;;;;5057935;28;20029;-65
2021/03/14 03:01:32;;;;;;;10.15;3.40;;;5.30;99.90;;;;;;5058968;28;20098;-64
2021/03/14 03:03:59;;;;;;;11.15;3.55;;;5.30;99.90;;;;;;5057350;28;20401;-64
2021/03/14 03:06:27;;;;;;;10.55;3.97;;;5.10;99.90;;;;;;5057214;28;20044;-65
2021/03/14 03:08:53;;;;;;;9.90;4.65;;;5.00;99.90;;;;;;5059051;28;20693;-64
2021/03/14 03:11:20;;;;;;;9.10;3.90;;;4.80;99.90;;;;;;5057095;28;20082;-65
2021/03/14 03:13:46;;;;;;;9.32;3.60;;;4.70;99.90;;;;;;5058536;28;20036;-64
2021/03/14 03:16:15;;;;;;;6.90;3.50;;;4.80;99.90;;;;;;5040013;28;20119;-65
2021/03/14 03:18:42;;;;;;;13.25;3.50;;;4.70;99.90;;;;;;5058867;28;20749;-64
2021/03/14 03:21:10;;;;;;;3.92;2.65;;;4.70;99.90;;;;;;5057026;28;20033;-64
2021/03/14 03:23:36;;;;;;;6.15;3.10;;;4.70;99.90;;;;;;5056601;28;20492;-65
2021/03/14 03:26:03;;;;;;;7.28;3.20;;;4.70;99.90;;;;;;5039168;28;20039;-64
2021/03/14 03:28:29;;;;;;;6.85;2.80;;;4.60;99.90;;;;;;5057762;28;20718;-64
2021/03/14 03:30:55;;;;;;;4.53;2.90;;;4.60;99.90;;;;;;5056547;28;20032;-64
2021/03/14 03:33:21;;;;;;;3.15;2.58;;;4.50;99.90;;;;;;5057525;28;20303;-65
2021/03/14 03:35:47;;;;;;;9.15;2.80;;;4.50;99.90;;;;;;5056825;28;20028;-63
2021/03/14 03:38:13;;;;;;;6.60;2.83;;;4.50;99.90;;;;;;5056875;28;20040;-64
2021/03/14 03:40:38;;;;;;;5.70;2.80;;;4.50;99.90;;;;;;5057612;28;20040;-64
2021/03/14 03:43:12;;;;;;;5.88;2.55;;;4.50;99.90;;;;;;5055094;28;20040;-64
2021/03/14 03:45:40;;;;;;;6.68;2.83;;;4.50;99.90;;;;;;5056960;28;20032;-63
2021/03/14 03:48:09;;;;;;;9.18;2.75;;;4.40;99.90;;;;;;5056844;28;20033;-65
2021/03/14 03:50:37;;;;;;;7.60;2.00;;;4.40;99.90;;;;;;5056810;28;20801;-63
2021/03/14 03:53:03;;;;;;;3.90;1.70;;;4.40;99.90;;;;;;5057667;28;20036;-62
2021/03/14 03:55:29;;;;;;;2.38;1.48;;;4.40;99.90;;;;;;5056296;28;20032;-65
2021/03/14 03:57:55;;;;;;;4.00;1.58;;;4.40;99.90;;;;;;5056832;28;20020;-65
2021/03/14 04:00:22;;;;;;;1.40;1.30;;;4.40;99.90;;;;;;5056801;28;20044;-65
2021/03/14 04:02:49;;;;;;;2.03;1.40;;;4.30;99.90;;;;;;5056105;28;20040;-65
2021/03/14 04:05:17;;;;;;;1.52;1.20;;;4.30;99.90;;;;;;5056141;28;20079;-65
2021/03/14 04:07:46;;;;;;;3.38;1.25;;;4.20;99.90;;;;;;5056956;28;20068;-65
2021/03/14 04:10:19;;;;;;;2.15;1.13;;;4.30;99.90;;;;;;5056386;28;20536;-64
2021/03/14 04:12:47;;;;;;;2.58;1.23;;;4.30;99.90;;;;;;5056935;28;20043;-65
2021/03/14 04:15:15;;;;;;;1.88;1.20;;;4.30;99.90;;;;;;5056413;28;20024;-64
2021/03/14 04:17:42;;;;;;;1.60;1.08;;;4.20;99.90;;;;;;5051268;28;20033;-65
2021/03/14 04:20:14;;;;;;;1.33;1.20;;;4.20;99.90;;;;;;5055763;28;20036;-65
2021/03/14 04:22:44;;;;;;;2.05;1.30;;;4.20;99.90;;;;;;5056655;28;20047;-65
2021/03/14 04:25:12;;;;;;;2.58;1.27;;;4.20;99.90;;;;;;5056373;28;20048;-65
2021/03/14 04:27:39;;;;;;;2.00;1.13;;;4.10;99.90;;;;;;5055940;28;20556;-64
2021/03/14 04:30:06;;;;;;;2.97;1.05;;;4.10;99.90;;;;;;5055599;28;20105;-64
2021/03/14 04:32:32;;;;;;;2.78;1.20;;;4.20;99.90;;;;;;5056094;28;20028;-64
2021/03/14 04:35:00;;;;;;;3.97;1.35;;;4.10;99.90;;;;;;5039476;28;20036;-65
2021/03/14 04:37:26;;;;;;;2.35;1.40;;;4.10;99.90;;;;;;5055938;28;20193;-64
2021/03/14 04:39:54;;;;;;;1.67;1.00;;;4.10;99.90;;;;;;5039714;28;20554;-65
2021/03/14 04:42:20;;;;;;;3.22;1.55;;;4.10;99.90;;;;;;5038448;28;20036;-65
2021/03/14 04:44:48;;;;;;;4.25;1.45;;;4.00;99.90;;;;;;5037828;28;20032;-65
2021/03/14 04:47:14;;;;;;;2.80;1.50;;;4.00;99.90;;;;;;5035509;28;20572;-65
2021/03/14 04:49:40;;;;;;;2.75;1.45;;;4.00;99.90;;;;;;5049073;28;20055;-64
2021/03/14 04:52:07;;;;;;;3.20;1.33;;;4.00;99.90;;;;;;5055914;28;20035;-65
2021/03/14 04:54:34;;;;;;;3.35;1.60;;;4.00;99.90;;;;;;5055659;28;20028;-65
2021/03/14 04:57:00;;;;;;;3.08;1.60;;;4.10;99.90;;;;;;5055902;28;20033;-64
2021/03/14 04:59:29;;;;;;;6.70;1.35;;;4.00;99.90;;;;;;5056010;28;20032;-65
2021/03/14 05:01:55;;;;;;;2.38;1.40;;;4.00;99.90;;;;;;5050847;28;20492;-65
2021/03/14 05:04:23;;;;;;;4.88;1.50;;;4.00;99.90;;;;;;5055747;28;20408;-64
2021/03/14 05:06:50;;;;;;;3.65;1.80;;;4.00;99.90;;;;;;5055832;28;20035;-64
2021/03/14 05:09:16;;;;;;;3.58;1.65;;;4.00;99.90;;;;;;5055806;28;20049;-65
2021/03/14 05:11:44;;;;;;;2.42;1.60;;;4.00;99.90;;;;;;5055511;28;20798;-64
2021/03/14 05:14:11;;;;;;;2.50;1.70;;;3.90;99.90;;;;;;5038143;28;20078;-64
2021/03/14 05:16:40;;;;;;;3.42;1.73;;;3.90;99.90;;;;;;5053343;28;20380;-65
2021/03/14 05:19:08;;;;;;;2.95;2.00;;;4.00;99.90;;;;;;5037445;28;20133;-65
2021/03/14 05:21:34;;;;;;;3.97;1.60;;;3.90;99.90;;;;;;5037154;28;20068;-64
2021/03/14 05:24:00;;;;;;;6.18;1.98;;;3.90;99.90;;;;;;5054117;28;20024;-65
2021/03/14 05:26:27;;;;;;;3.80;1.90;;;3.90;99.90;;;;;;5055754;28;20476;-65
2021/03/14 05:28:55;;;;;;;2.63;1.88;;;3.90;99.90;;;;;;5056145;28;20044;-65
2021/03/14 05:31:30;;;;;;;4.40;2.13;;;3.90;99.90;;;;;;5057663;28;20115;-64
2021/03/14 05:33:57;;;;;;;3.73;1.80;;;3.80;99.90;;;;;;5036250;28;20095;-65
2021/03/14 05:36:24;;;;;;;4.10;2.20;;;3.80;99.90;;;;;;5037950;28;20721;-65
2021/03/14 05:38:51;;;;;;;12.57;4.13;;;3.70;99.90;;;;;;5052121;28;20083;-65
2021/03/14 05:41:16;;;;;;;7.82;3.65;;;3.70;99.90;;;;;;5057219;28;20033;-65
2021/03/14 05:43:42;;;;;;;4.10;2.05;;;3.70;99.90;;;;;;5050545;28;20050;-65
2021/03/14 05:46:10;;;;;;;4.93;2.90;;;3.70;99.90;;;;;;5040196;28;20045;-64
2021/03/14 05:48:36;;;;;;;2.78;2.08;;;3.70;99.90;;;;;;5056481;28;20388;-64
2021/03/14 05:51:02;;;;;;;4.20;2.42;;;3.70;99.90;;;;;;5053615;28;20450;-65
2021/03/14 05:53:30;;;;;;;3.40;2.05;;;3.60;99.90;;;;;;5059852;28;20032;-66
2021/03/14 05:55:56;;;;;;;3.20;2.20;;;3.60;99.90;;;;;;5053108;28;20075;-67
2021/03/14 05:58:22;;;;;;;7.63;2.22;;;3.70;99.90;;;;;;5059538;28;20117;-65
2021/03/14 06:00:49;;;;;;;4.75;2.50;;;3.70;99.90;;;;;;5058293;28;20402;-65
2021/03/14 06:03:15;;;;;;;5.22;2.53;;;3.70;99.90;;;;;;5057064;28;20039;-64
2021/03/14 06:05:41;;;;;;;4.30;2.42;;;3.70;99.90;;;;;;5059029;28;20045;-67
2021/03/14 06:08:07;;;;;;;8.57;2.90;;;3.70;99.90;;;;;;5041452;28;20106;-65
2021/03/14 06:10:32;;;;;;;7.15;2.58;;;3.80;99.90;;;;;;5059410;28;20120;-65
2021/03/14 06:12:58;;;;;;;6.78;2.70;;;3.80;99.90;;;;;;5059294;28;20135;-66
2021/03/14 06:15:24;;;;;;;4.25;2.55;;;3.80;99.90;;;;;;5056376;28;20028;-64
2021/03/14 06:17:50;;;;;;;4.47;2.55;;;3.80;99.90;;;;;;5040481;28;20045;-65
2021/03/14 06:20:41;;;;;;;7.63;2.65;;;3.90;99.90;;;;;;5041252;28;20047;-65
2021/03/14 06:23:17;;;;;;;3.47;2.47;;;3.90;99.90;;;;;;5054264;28;20500;-65
2021/03/14 06:25:45;;;;;;;3.95;2.58;;;3.90;99.90;;;;;;5058499;28;20056;-65
2021/03/14 06:28:12;;;;;;;5.07;2.80;;;3.90;99.90;;;;;;5058878;28;20040;-64
2021/03/14 06:30:39;;;;;;;4.18;2.72;;;4.00;99.90;;;;;;5059472;28;20323;-65
2021/03/14 06:33:16;;;;;;;6.63;3.38;;;4.00;99.90;;;;;;5040102;28;20117;-64
2021/03/14 06:35:46;;;;;;;7.00;3.38;;;3.90;99.90;;;;;;5055159;28;20033;-64
2021/03/14 06:38:27;;;;;;;3.00;2.40;;;4.00;99.90;;;;;;5041021;28;20070;-64
2021/03/14 06:41:02;;;;;;;5.18;2.50;;;4.00;99.90;;;;;;5057091;28;20084;-64
2021/03/14 06:43:32;;;;;;;3.08;2.55;;;4.00;99.90;;;;;;5059897;28;20051;-65
2021/03/14 06:45:59;;;;;;;3.05;2.30;;;4.00;99.90;;;;;;5056691;28;20556;-64
2021/03/14 06:48:26;;;;;;;11.43;2.65;;;4.10;99.90;;;;;;5059562;28;20051;-64
2021/03/14 06:50:53;;;;;;;3.25;2.17;;;4.10;99.90;;;;;;5058103;28;20031;-64
2021/03/14 06:53:21;;;;;;;4.18;2.03;;;4.00;99.90;;;;;;5041187;28;20037;-65
2021/03/14 06:55:52;;;;;;;4.82;2.38;;;4.10;99.90;;;;;;5058018;28;20469;-64
2021/03/14 06:58:35;;;;;;;3.58;2.03;;;4.00;99.90;;;;;;5058385;28;20051;-64
2021/03/14 07:01:14;;;;;;;2.88;2.17;;;4.10;99.90;;;;;;5052180;28;20036;-64
2021/03/14 07:03:45;;;;;;;4.88;2.33;;;4.10;99.90;;;;;;5053567;28;20045;-65
2021/03/14 07:06:23;;;;;;;3.55;2.20;;;4.10;99.90;;;;;;5054987;28;20037;-65
2021/03/14 07:08:59;;;;;;;4.82;1.88;;;4.10;99.90;;;;;;5055973;28;20096;-64
2021/03/14 07:11:42;;;;;;;5.13;2.80;;;4.10;99.90;;;;;;5057394;28;20040;-65
2021/03/14 07:14:12;;;;;;;11.02;4.88;;;4.10;99.90;;;;;;5036680;28;20067;-64
2021/03/14 07:16:50;;;;;;;7.10;3.40;;;4.10;99.90;;;;;;5053138;28;20814;-66
2021/03/14 07:19:29;;;;;;;5.25;2.90;;;4.10;99.90;;;;;;5055755;28;20028;-66
2021/03/14 07:22:09;;;;;;;27.77;14.40;;;4.10;99.90;;;;;;5058035;28;20135;-64
2021/03/14 07:24:37;;;;;;;31.67;18.23;;;4.10;99.90;;;;;;5058021;28;20043;-64
2021/03/14 07:27:05;;;;;;;7.45;3.75;;;4.00;99.90;;;;;;5056357;28;20111;-65
2021/03/14 07:29:34;;;;;;;5.40;2.92;;;4.10;99.90;;;;;;5058182;28;20135;-67
2021/03/14 07:32:01;;;;;;;5.72;3.00;;;4.20;99.90;;;;;;5058098;28;20079;-69
2021/03/14 07:34:26;;;;;;;27.27;11.98;;;4.20;99.90;;;;;;5039838;28;20926;-66
2021/03/14 07:36:53;;;;;;;11.82;4.70;;;4.20;99.90;;;;;;5057841;28;20107;-67
2021/03/14 07:39:19;;;;;;;8.00;2.70;;;4.30;99.90;;;;;;5057277;28;20070;-66
2021/03/14 07:41:46;;;;;;;15.07;6.00;;;4.30;99.90;;;;;;5057961;28;20477;-65
2021/03/14 07:44:19;;;;;;;19.35;6.25;;;4.30;99.90;;;;;;5038619;28;20028;-66
2021/03/14 07:46:46;;;;;;;18.05;7.50;;;4.40;99.90;;;;;;5037204;28;20519;-64
2021/03/14 07:49:14;;;;;;;7.15;2.95;;;4.40;99.90;;;;;;5056764;28;20060;-64
2021/03/14 07:51:47;;;;;;;7.53;3.30;;;4.50;99.90;;;;;;5053272;28;20036;-64
2021/03/14 07:54:23;;;;;;;5.78;2.95;;;4.50;99.90;;;;;;5038290;28;20143;-64
2021/03/14 07:56:53;;;;;;;6.35;2.90;;;4.60;99.90;;;;;;5056664;28;20145;-64
2021/03/14 07:59:27;;;;;;;6.80;3.05;;;4.60;99.90;;;;;;5055466;28;20065;-64
2021/03/14 08:01:53;;;;;;;6.20;2.70;;;4.70;99.90;;;;;;5038158;28;20063;-64
2021/03/14 08:04:33;;;;;;;5.32;2.53;;;4.80;99.90;;;;;;5047006;28;20496;-66
2021/03/14 08:06:59;;;;;;;5.70;2.88;;;4.80;99.90;;;;;;5048391;28;20051;-66
2021/03/14 08:09:45;;;;;;;5.95;2.65;;;4.80;99.90;;;;;;5038019;28;20062;-65
2021/03/14 08:12:15;;;;;;;6.15;2.30;;;4.90;99.90;;;;;;5050368;28;20045;-64
2021/03/14 08:14:42;;;;;;;5.15;2.38;;;5.00;99.90;;;;;;5054319;28;20033;-64
2021/03/14 08:17:20;;;;;;;8.77;2.13;;;5.00;99.90;;;;;;5055872;28;20029;-64
2021/03/14 08:19:47;;;;;;;5.78;2.10;;;5.10;99.90;;;;;;5051813;28;20067;-64
2021/03/14 08:22:38;;;;;;;3.08;1.92;;;5.00;99.90;;;;;;5054197;28;20657;-67
2021/03/14 08:25:27;;;;;;;7.38;3.30;;;5.10;99.90;;;;;;5040366;28;20491;-65
2021/03/14 08:28:20;;;;;;;7.00;2.05;;;5.10;99.90;;;;;;5057703;28;20105;-65
2021/03/14 08:30:47;;;;;;;2.20;1.70;;;5.20;99.90;;;;;;5020435;28;20523;-65
2021/03/14 08:33:21;;;;;;;4.85;1.90;;;5.30;99.90;;;;;;5055042;28;20028;-65
2021/03/14 08:35:49;;;;;;;5.22;1.90;;;5.20;99.90;;;;;;5035785;28;20025;-66
2021/03/14 08:38:27;;;;;;;7.88;2.25;;;5.20;99.90;;;;;;5055074;28;20059;-65
2021/03/14 08:41:28;;;;;;;9.23;2.83;;;5.20;99.90;;;;;;5051787;28;20033;-66
2021/03/14 08:44:40;;;;;;;5.90;3.72;;;5.20;99.90;;;;;;5034983;28;20040;-65
2021/03/14 08:47:16;;;;;;;10.27;4.53;;;5.20;99.90;;;;;;5037084;28;20033;-65
2021/03/14 08:49:52;;;;;;;7.28;2.38;;;5.20;99.90;;;;;;5037327;28;20466;-65
2021/03/14 08:52:21;;;;;;;7.10;2.50;;;5.20;99.90;;;;;;5055631;28;20025;-65
2021/03/14 08:54:58;;;;;;;6.35;1.95;;;5.20;99.90;;;;;;5022460;28;20036;-65
2021/03/14 08:57:27;;;;;;;7.72;2.35;;;5.20;99.90;;;;;;5030746;28;20028;-65
2021/03/14 08:59:58;;;;;;;7.28;3.00;;;5.20;99.90;;;;;;5055256;28;20090;-65
2021/03/14 09:02:26;;;;;;;5.30;2.05;;;5.20;99.90;;;;;;5056726;28;20036;-65
2021/03/14 09:05:10;;;;;;;6.82;2.20;;;5.30;99.90;;;;;;5036836;28;20033;-65
2021/03/14 09:07:42;;;;;;;5.45;2.13;;;5.30;99.90;;;;;;5033884;28;20047;-65
2021/03/14 09:10:14;;;;;;;2.40;1.45;;;5.40;99.90;;;;;;5051979;28;20070;-65
2021/03/14 09:12:56;;;;;;;7.55;3.17;;;5.50;99.90;;;;;;5053559;28;20040;-65
2021/03/14 09:15:28;;;;;;;7.93;2.20;;;5.50;99.90;;;;;;5052196;28;20536;-65
2021/03/14 09:18:13;;;;;;;2.95;1.65;;;5.50;99.90;;;;;;5037300;28;20166;-64
2021/03/14 09:20:38;;;;;;;4.10;2.25;;;5.50;99.90;;;;;;5038341;28;20032;-64
2021/03/14 09:23:06;;;;;;;5.53;1.80;;;5.50;99.90;;;;;;5054776;28;20484;-64
2021/03/14 09:25:38;;;;;;;7.90;2.08;;;5.50;99.90;;;;;;5054482;28;20142;-64
2021/03/14 09:28:04;;;;;;;6.18;2.00;;;5.50;99.90;;;;;;5037162;28;20036;-64
2021/03/14 09:30:43;;;;;;;6.70;1.85;;;5.50;99.90;;;;;;5053264;28;20120;-65
2021/03/14 09:33:12;;;;;;;5.95;1.70;;;5.50;99.90;;;;;;5053978;28;20036;-64
2021/03/14 09:36:05;;;;;;;3.63;1.65;;;5.50;99.90;;;;;;5034533;28;20584;-64
2021/03/14 09:38:36;;;;;;;6.75;2.80;;;5.50;99.90;;;;;;5053645;28;20036;-64
2021/03/14 09:41:07;;;;;;;6.95;2.10;;;5.50;99.90;;;;;;5053750;28;20056;-64
2021/03/14 09:43:38;;;;;;;7.95;2.40;;;5.60;99.90;;;;;;5034798;28;20179;-64
2021/03/14 09:46:07;;;;;;;6.55;2.00;;;5.60;99.90;;;;;;5051807;28;20422;-66
2021/03/14 09:48:38;;;;;;;6.10;2.10;;;5.50;99.90;;;;;;5037750;28;20779;-65
2021/03/14 09:51:07;;;;;;;4.38;1.88;;;5.50;99.90;;;;;;5037072;28;20086;-65
2021/03/14 09:53:35;;;;;;;5.18;2.30;;;5.40;99.90;;;;;;5036568;28;20032;-65
2021/03/14 09:56:14;;;;;;;6.25;2.30;;;5.40;99.90;;;;;;5036646;28;20834;-65
2021/03/14 09:59:03;;;;;;;8.27;3.15;;;5.40;99.90;;;;;;5048968;28;20110;-64
2021/03/14 10:01:36;;;;;;;9.23;2.70;;;5.50;99.90;;;;;;5053087;28;20033;-65
2021/03/14 10:04:02;;;;;;;7.03;2.30;;;5.50;99.90;;;;;;5037137;28;20035;-65
2021/03/14 10:06:43;;;;;;;6.70;2.60;;;5.60;99.90;;;;;;5033955;28;20911;-65
2021/03/14 10:09:25;;;;;;;12.45;2.63;;;5.70;99.90;;;;;;5037482;28;20097;-65
2021/03/14 10:12:03;;;;;;;7.57;2.38;;;5.70;99.90;;;;;;5032121;28;20039;-76
2021/03/14 10:14:35;;;;;;;7.57;2.20;;;5.90;99.90;;;;;;5036796;28;20479;-75
2021/03/14 10:17:02;;;;;;;5.00;1.98;;;6.10;99.90;;;;;;5021968;28;20025;-75
2021/03/14 10:19:28;;;;;;;6.07;2.00;;;6.10;99.90;;;;;;5051300;28;20025;-77
2021/03/14 10:21:54;;;;;;;7.85;2.70;;;6.20;99.90;;;;;;5035757;28;20056;-76
2021/03/14 10:24:47;;;;;;;9.77;3.65;;;6.30;99.90;;;;;;5040599;28;20028;-77
2021/03/14 10:27:22;;;;;;;13.77;2.30;;;6.40;99.90;;;;;;5057464;28;20035;-78
2021/03/14 10:30:00;;;;;;;6.22;2.13;;;6.40;99.90;;;;;;5055267;28;20115;-79
2021/03/14 10:32:47;;;;;;;5.45;2.00;;;6.40;99.90;;;;;;5039309;28;20024;-76
2021/03/14 10:35:22;;;;;;;4.22;1.90;;;6.40;99.90;;;;;;5047986;28;20028;-77
2021/03/14 10:37:50;;;;;;;6.40;2.10;;;6.40;99.90;;;;;;5039778;28;20043;-65
2021/03/14 10:40:25;;;;;;;9.32;1.90;;;6.30;99.90;;;;;;5039957;28;20036;-65
2021/03/14 10:43:00;;;;;;;7.53;2.10;;;6.20;99.90;;;;;;5028921;28;20032;-65
2021/03/14 10:45:43;;;;;;;7.93;2.97;;;6.20;99.90;;;;;;5038475;28;20036;-66
2021/03/14 10:48:09;;;;;;;20.60;6.63;;;6.10;99.90;;;;;;5058315;28;20273;-65
2021/03/14 10:50:43;;;;;;;7.53;2.53;;;6.20;99.90;;;;;;5055368;28;20036;-65
2021/03/14 10:53:19;;;;;;;5.18;2.15;;;6.40;99.90;;;;;;5056506;28;20116;-65
2021/03/14 10:55:59;;;;;;;9.18;2.25;;;6.30;99.90;;;;;;5023575;28;20032;-65
2021/03/14 10:58:35;;;;;;;11.55;2.45;;;6.30;99.90;;;;;;5041682;28;20028;-72
2021/03/14 11:01:15;;;;;;;9.98;2.10;;;6.30;99.90;;;;;;5015845;28;20095;-72
2021/03/14 11:03:41;;;;;;;9.95;2.13;;;6.40;99.90;;;;;;5036933;28;20036;-71
2021/03/14 11:06:24;;;;;;;9.30;2.30;;;6.50;99.90;;;;;;5038048;28;20032;-72
2021/03/14 11:09:20;;;;;;;6.68;2.22;;;6.70;99.90;;;;;;5044170;28;20032;-72
2021/03/14 11:11:48;;;;;;;12.13;2.53;;;7.00;99.90;;;;;;5033787;28;20047;-72
2021/03/14 11:14:36;;;;;;;8.00;2.40;;;7.20;99.90;;;;;;5055659;28;20641;-72
2021/03/14 11:17:23;;;;;;;6.40;2.10;;;7.40;99.90;;;;;;5046713;28;20055;-74
2021/03/14 11:20:11;;;;;;;7.20;2.38;;;7.60;99.90;;;;;;5036432;28;20036;-72
2021/03/14 11:22:51;;;;;;;6.68;1.85;;;7.80;99.90;;;;;;5038907;28;20029;-73
2021/03/14 11:25:18;;;;;;;5.32;2.08;;;8.10;99.90;;;;;;5039375;28;20035;-68
2021/03/14 11:27:51;;;;;;;6.85;1.95;;;8.00;99.90;;;;;;5038752;28;20492;-66
2021/03/14 11:30:20;;;;;;;5.05;1.90;;;7.60;99.90;;;;;;5022128;28;20115;-66
2021/03/14 11:32:46;;;;;;;8.48;2.30;;;7.40;99.90;;;;;;5020612;28;20032;-66
2021/03/14 11:35:27;;;;;;;5.78;2.05;;;7.10;99.90;;;;;;5037468;28;20028;-65
2021/03/14 11:38:08;;;;;;;9.23;2.00;;;7.10;99.90;;;;;;5051990;28;20056;-65
2021/03/14 11:40:44;;;;;;;5.35;1.98;;;7.10;99.90;;;;;;5037226;28;20067;-65
2021/03/14 11:43:30;;;;;;;8.88;3.05;;;7.20;99.90;;;;;;5055414;28;20520;-65
2021/03/14 11:46:12;;;;;;;7.10;2.42;;;7.30;99.90;;;;;;5036657;28;20047;-65
2021/03/14 11:48:38;;;;;;;5.43;1.90;;;7.20;99.90;;;;;;5038983;28;20774;-66
2021/03/14 11:51:12;;;;;;;6.35;2.30;;;7.10;99.90;;;;;;5056585;28;20025;-65
2021/03/14 11:53:38;;;;;;;7.32;2.45;;;7.00;99.90;;;;;;5051488;28;20067;-65
2021/03/14 11:56:04;;;;;;;9.15;2.30;;;7.20;99.90;;;;;;5056955;28;20028;-65
2021/03/14 11:58:43;;;;;;;7.15;1.95;;;7.20;99.90;;;;;;5051656;28;20036;-65
2021/03/14 12:01:09;;;;;;;6.10;1.92;;;7.30;99.90;;;;;;5038597;28;20032;-64
2021/03/14 12:03:36;;;;;;;6.75;2.20;;;7.60;99.90;;;;;;5039423;28;20037;-64
2021/03/14 12:06:06;;;;;;;4.93;1.88;;;7.80;99.90;;;;;;5037962;28;20037;-65
2021/03/14 12:08:59;;;;;;;5.72;1.90;;;8.00;99.90;;;;;;5047389;28;20040;-65
2021/03/14 12:11:27;;;;;;;5.18;1.95;;;8.10;99.90;;;;;;5033209;28;20035;-65
2021/03/14 12:13:57;;;;;;;3.83;1.85;;;8.10;99.90;;;;;;5050627;28;20036;-64
2021/03/14 12:16:42;;;;;;;7.93;2.35;;;8.00;99.90;;;;;;5055354;28;20051;-65
2021/03/14 12:19:08;;;;;;;7.35;2.15;;;7.60;99.90;;;;;;5038425;28;20092;-64
2021/03/14 12:21:34;;;;;;;5.95;1.60;;;7.30;99.90;;;;;;5035546;28;20029;-65
2021/03/14 12:24:00;;;;;;;3.83;1.10;;;7.10;99.90;;;;;;5055699;28;20034;-65
2021/03/14 12:26:32;;;;;;;4.43;1.20;;;6.70;99.90;;;;;;5055002;28;20048;-64
2021/03/14 12:29:06;;;;;;;3.33;1.52;;;6.50;99.90;;;;;;5037513;28;20090;-65
2021/03/14 12:31:39;;;;;;;19.58;8.27;;;6.40;99.90;;;;;;5036452;28;20147;-64
2021/03/14 12:34:05;;;;;;;5.60;1.70;;;6.30;99.90;;;;;;5036189;28;20024;-63
2021/03/14 12:36:32;;;;;;;3.75;1.40;;;6.40;99.90;;;;;;5053654;28;20335;-65
2021/03/14 12:39:09;;;;;;;6.57;1.48;;;7.10;99.90;;;;;;5032143;28;20032;-65
2021/03/14 12:41:36;;;;;;;4.15;1.13;;;8.10;99.90;;;;;;5037288;28;20054;-64
2021/03/14 12:44:02;;;;;;;3.65;1.33;;;8.20;99.90;;;;;;5055048;28;20032;-64
2021/03/14 12:46:30;;;;;;;5.38;1.52;;;8.20;99.90;;;;;;5036189;28;20070;-65
2021/03/14 12:48:56;;;;;;;2.78;1.27;;;8.10;99.90;;;;;;5053799;28;20037;-67
2021/03/14 12:51:22;;;;;;;10.00;3.92;;;8.30;99.90;;;;;;5035827;28;20040;-65
2021/03/14 12:53:48;;;;;;;3.38;1.20;;;9.00;99.90;;;;;;5035325;28;20043;-64
2021/03/14 12:56:15;;;;;;;3.28;1.15;;;9.80;99.90;;;;;;5036369;28;20028;-66
2021/03/14 12:59:00;;;;;;;3.33;1.42;;;10.40;99.90;;;;;;5029597;28;20032;-74
2021/03/14 13:01:27;;;;;;;3.65;1.33;;;11.00;99.90;;;;;;5037028;28;20029;-76
2021/03/14 13:03:53;;;;;;;2.25;0.90;;;11.20;99.90;;;;;;5056076;28;20058;-76
2021/03/14 13:06:19;;;;;;;1.55;0.90;;;11.10;99.90;;;;;;5035767;28;20044;-76
2021/03/14 13:08:45;;;;;;;9.50;1.60;;;11.40;99.90;;;;;;5047441;28;20538;-76
2021/03/14 13:11:11;;;;;;;3.85;1.02;;;12.20;99.90;;;;;;5028552;28;20036;-65
2021/03/14 13:13:37;;;;;;;3.22;1.17;;;12.80;99.90;;;;;;5054063;28;20029;-65